sensor_id;sensor_type;location;lat;lon;timestamp;P1;durP1;ratioP1;P2;durP2;ratioP2
48124;SDS011;33908;47.436;18.918;2022-07-01T00:01:49;8.20;;;6.37;;
48124;SDS011;33908;47.436;18.918;2022-07-01T00:04:17;7.85;;;6.70;;
48124;SDS011;33908;47.436;18.918;2022-07-01T00:06:45;9.95;;;6.47;;
48124;SDS011;33908;47.436;18.918;2022-07-01T00:09:16;11.57;;;6.82;;
48124;SDS011;33908;47.436;18.918;2022-07-01T00:11:45;13.77;;;7.40;;
48124;SDS011;33908;47.436;18.918;2022-07-01T00:14:13;7.97;;;6.32;;
48124;SDS011;33908;47.436;18.918;2022-07-01T00:16:41;11.15;;;6.85;;
48124;SDS011;33908;47.436;18.918;2022-07-01T00:19:10;11.88;;;5.93;;
48124;SDS011;33908;47.436;18.918;2022-07-01T00:21:45;13.20;;;6.20;;
48124;SDS011;33908;47.436;18.918;2022-07-01T00:24:14;9.13;;;6.43;;
48124;SDS011;33908;47.436;18.918;2022-07-01T00:26:42;8.25;;;5.80;;
48124;SDS011;33908;47.436;18.918;2022-07-01T00:29:10;6.80;;;6.10;;
48124;SDS011;33908;47.436;18.918;2022-07-01T00:31:38;8.68;;;6.53;;
48124;SDS011;33908;47.436;18.918;2022-07-01T00:34:06;10.07;;;6.37;;
48124;SDS011;33908;47.436;18.918;2022-07-01T00:36:34;8.55;;;6.65;;
48124;SDS011;33908;47.436;18.918;2022-07-01T00:39:02;9.40;;;6.28;;
48124;SDS011;33908;47.436;18.918;2022-07-01T00:41:30;8.57;;;5.97;;
48124;SDS011;33908;47.436;18.918;2022-07-01T00:43:59;10.98;;;6.78;;
48124;SDS011;33908;47.436;18.918;2022-07-01T00:46:27;7.70;;;6.55;;
48124;SDS011;33908;47.436;18.918;2022-07-01T00:48:56;10.30;;;6.40;;
48124;SDS011;33908;47.436;18.918;2022-07-01T00:51:26;8.15;;;6.78;;
48124;SDS011;33908;47.436;18.918;2022-07-01T00:53:53;12.13;;;6.35;;
48124;SDS011;33908;47.436;18.918;2022-07-01T00:56:21;8.38;;;6.40;;
48124;SDS011;33908;47.436;18.918;2022-07-01T00:58:49;8.57;;;6.22;;
48124;SDS011;33908;47.436;18.918;2022-07-01T01:01:18;9.27;;;5.40;;
48124;SDS011;33908;47.436;18.918;2022-07-01T01:03:46;8.77;;;5.97;;
48124;SDS011;33908;47.436;18.918;2022-07-01T01:06:15;7.35;;;6.37;;
48124;SDS011;33908;47.436;18.918;2022-07-01T01:08:43;9.40;;;6.53;;
48124;SDS011;33908;47.436;18.918;2022-07-01T01:11:12;10.05;;;6.05;;
48124;SDS011;33908;47.436;18.918;2022-07-01T01:13:41;9.07;;;6.07;;
48124;SDS011;33908;47.436;18.918;2022-07-01T01:16:19;11.20;;;6.50;;
48124;SDS011;33908;47.436;18.918;2022-07-01T01:18:48;12.27;;;6.78;;
48124;SDS011;33908;47.436;18.918;2022-07-01T01:21:17;10.82;;;6.60;;
48124;SDS011;33908;47.436;18.918;2022-07-01T01:23:45;9.93;;;6.85;;
48124;SDS011;33908;47.436;18.918;2022-07-01T01:26:21;9.27;;;6.18;;
48124;SDS011;33908;47.436;18.918;2022-07-01T01:28:49;10.75;;;7.47;;
48124;SDS011;33908;47.436;18.918;2022-07-01T01:31:18;13.90;;;6.97;;
48124;SDS011;33908;47.436;18.918;2022-07-01T01:33:56;9.32;;;6.40;;
48124;SDS011;33908;47.436;18.918;2022-07-01T01:36:25;8.73;;;6.68;;
48124;SDS011;33908;47.436;18.918;2022-07-01T01:38:52;14.15;;;6.93;;
48124;SDS011;33908;47.436;18.918;2022-07-01T01:41:23;10.27;;;6.03;;
48124;SDS011;33908;47.436;18.918;2022-07-01T01:43:51;13.27;;;6.53;;
48124;SDS011;33908;47.436;18.918;2022-07-01T01:46:19;10.25;;;6.03;;
48124;SDS011;33908;47.436;18.918;2022-07-01T01:48:46;6.80;;;6.05;;
48124;SDS011;33908;47.436;18.918;2022-07-01T01:51:14;8.13;;;6.22;;
48124;SDS011;33908;47.436;18.918;2022-07-01T01:53:42;7.60;;;6.10;;
48124;SDS011;33908;47.436;18.918;2022-07-01T01:56:10;7.03;;;5.72;;
48124;SDS011;33908;47.436;18.918;2022-07-01T01:58:38;8.90;;;6.37;;
48124;SDS011;33908;47.436;18.918;2022-07-01T02:01:11;9.48;;;6.72;;
48124;SDS011;33908;47.436;18.918;2022-07-01T02:03:41;7.32;;;5.95;;
48124;SDS011;33908;47.436;18.918;2022-07-01T02:06:11;9.77;;;6.80;;
48124;SDS011;33908;47.436;18.918;2022-07-01T02:08:39;7.95;;;5.95;;
48124;SDS011;33908;47.436;18.918;2022-07-01T02:11:08;9.05;;;5.87;;
48124;SDS011;33908;47.436;18.918;2022-07-01T02:13:36;6.68;;;6.07;;
48124;SDS011;33908;47.436;18.918;2022-07-01T02:16:05;7.72;;;6.50;;
48124;SDS011;33908;47.436;18.918;2022-07-01T02:18:33;8.80;;;6.22;;
48124;SDS011;33908;47.436;18.918;2022-07-01T02:21:01;7.12;;;5.25;;
48124;SDS011;33908;47.436;18.918;2022-07-01T02:23:37;7.12;;;6.43;;
48124;SDS011;33908;47.436;18.918;2022-07-01T02:26:05;13.50;;;6.60;;
48124;SDS011;33908;47.436;18.918;2022-07-01T02:28:34;11.52;;;5.97;;
48124;SDS011;33908;47.436;18.918;2022-07-01T02:31:03;8.60;;;5.80;;
48124;SDS011;33908;47.436;18.918;2022-07-01T02:33:32;9.07;;;7.05;;
48124;SDS011;33908;47.436;18.918;2022-07-01T02:36:00;11.10;;;7.20;;
48124;SDS011;33908;47.436;18.918;2022-07-01T02:38:28;11.02;;;5.82;;
48124;SDS011;33908;47.436;18.918;2022-07-01T02:40:56;11.90;;;6.85;;
48124;SDS011;33908;47.436;18.918;2022-07-01T02:43:24;7.70;;;6.47;;
48124;SDS011;33908;47.436;18.918;2022-07-01T02:45:52;7.87;;;5.75;;
48124;SDS011;33908;47.436;18.918;2022-07-01T02:48:20;9.75;;;6.03;;
48124;SDS011;33908;47.436;18.918;2022-07-01T02:50:48;13.02;;;6.22;;
48124;SDS011;33908;47.436;18.918;2022-07-01T02:53:16;7.60;;;6.80;;
48124;SDS011;33908;47.436;18.918;2022-07-01T02:55:44;6.95;;;5.68;;
48124;SDS011;33908;47.436;18.918;2022-07-01T02:58:12;8.52;;;6.45;;
48124;SDS011;33908;47.436;18.918;2022-07-01T03:00:40;10.48;;;6.35;;
48124;SDS011;33908;47.436;18.918;2022-07-01T03:03:08;10.85;;;6.87;;
48124;SDS011;33908;47.436;18.918;2022-07-01T03:05:36;10.35;;;6.28;;
48124;SDS011;33908;47.436;18.918;2022-07-01T03:08:04;12.30;;;7.03;;
48124;SDS011;33908;47.436;18.918;2022-07-01T03:10:32;7.85;;;5.93;;
48124;SDS011;33908;47.436;18.918;2022-07-01T03:13:00;13.62;;;5.85;;
48124;SDS011;33908;47.436;18.918;2022-07-01T03:15:31;9.48;;;6.45;;
48124;SDS011;33908;47.436;18.918;2022-07-01T03:18:00;9.85;;;6.18;;
48124;SDS011;33908;47.436;18.918;2022-07-01T03:20:29;7.50;;;5.80;;
48124;SDS011;33908;47.436;18.918;2022-07-01T03:22:58;9.20;;;6.40;;
48124;SDS011;33908;47.436;18.918;2022-07-01T03:25:25;11.07;;;6.85;;
48124;SDS011;33908;47.436;18.918;2022-07-01T03:27:53;9.07;;;6.95;;
48124;SDS011;33908;47.436;18.918;2022-07-01T03:30:22;11.70;;;6.65;;
48124;SDS011;33908;47.436;18.918;2022-07-01T03:32:49;10.20;;;6.40;;
48124;SDS011;33908;47.436;18.918;2022-07-01T03:35:17;11.25;;;6.35;;
48124;SDS011;33908;47.436;18.918;2022-07-01T03:38:04;11.02;;;6.12;;
48124;SDS011;33908;47.436;18.918;2022-07-01T03:40:34;11.18;;;6.97;;
48124;SDS011;33908;47.436;18.918;2022-07-01T03:43:02;13.73;;;5.93;;
48124;SDS011;33908;47.436;18.918;2022-07-01T03:45:33;11.02;;;6.53;;
48124;SDS011;33908;47.436;18.918;2022-07-01T03:48:02;10.20;;;6.78;;
48124;SDS011;33908;47.436;18.918;2022-07-01T03:50:31;10.18;;;6.95;;
48124;SDS011;33908;47.436;18.918;2022-07-01T03:53:00;12.15;;;6.55;;
48124;SDS011;33908;47.436;18.918;2022-07-01T03:55:47;9.35;;;6.68;;
48124;SDS011;33908;47.436;18.918;2022-07-01T03:58:16;10.57;;;7.20;;
48124;SDS011;33908;47.436;18.918;2022-07-01T04:00:43;11.27;;;6.40;;
48124;SDS011;33908;47.436;18.918;2022-07-01T04:03:12;10.27;;;7.05;;
48124;SDS011;33908;47.436;18.918;2022-07-01T04:05:40;9.25;;;6.12;;
48124;SDS011;33908;47.436;18.918;2022-07-01T04:08:08;8.90;;;6.90;;
48124;SDS011;33908;47.436;18.918;2022-07-01T04:10:39;10.40;;;6.55;;
48124;SDS011;33908;47.436;18.918;2022-07-01T04:13:08;11.43;;;6.85;;
48124;SDS011;33908;47.436;18.918;2022-07-01T04:15:57;14.98;;;7.07;;
48124;SDS011;33908;47.436;18.918;2022-07-01T04:18:27;9.48;;;6.15;;
48124;SDS011;33908;47.436;18.918;2022-07-01T04:20:59;9.90;;;6.60;;
48124;SDS011;33908;47.436;18.918;2022-07-01T04:23:47;9.77;;;5.85;;
48124;SDS011;33908;47.436;18.918;2022-07-01T04:26:15;8.27;;;6.25;;
48124;SDS011;33908;47.436;18.918;2022-07-01T04:29:04;12.02;;;5.90;;
48124;SDS011;33908;47.436;18.918;2022-07-01T04:31:34;6.78;;;5.53;;
48124;SDS011;33908;47.436;18.918;2022-07-01T04:34:03;15.90;;;6.40;;
48124;SDS011;33908;47.436;18.918;2022-07-01T04:36:33;12.30;;;7.10;;
48124;SDS011;33908;47.436;18.918;2022-07-01T04:39:02;10.93;;;5.75;;
48124;SDS011;33908;47.436;18.918;2022-07-01T04:41:32;9.48;;;5.95;;
48124;SDS011;33908;47.436;18.918;2022-07-01T04:44:21;9.68;;;6.05;;
48124;SDS011;33908;47.436;18.918;2022-07-01T04:46:50;12.15;;;5.90;;
48124;SDS011;33908;47.436;18.918;2022-07-01T04:49:19;12.20;;;6.82;;
48124;SDS011;33908;47.436;18.918;2022-07-01T04:51:48;13.55;;;6.12;;
48124;SDS011;33908;47.436;18.918;2022-07-01T04:54:17;11.45;;;6.35;;
48124;SDS011;33908;47.436;18.918;2022-07-01T04:56:48;7.72;;;6.28;;
48124;SDS011;33908;47.436;18.918;2022-07-01T04:59:19;9.38;;;6.12;;
48124;SDS011;33908;47.436;18.918;2022-07-01T05:01:47;10.18;;;6.37;;
48124;SDS011;33908;47.436;18.918;2022-07-01T05:04:20;10.05;;;6.20;;
48124;SDS011;33908;47.436;18.918;2022-07-01T05:06:49;15.20;;;7.00;;
48124;SDS011;33908;47.436;18.918;2022-07-01T05:09:17;10.00;;;6.65;;
48124;SDS011;33908;47.436;18.918;2022-07-01T05:11:55;15.40;;;7.18;;
48124;SDS011;33908;47.436;18.918;2022-07-01T05:14:26;11.18;;;6.55;;
48124;SDS011;33908;47.436;18.918;2022-07-01T05:16:54;9.75;;;6.50;;
48124;SDS011;33908;47.436;18.918;2022-07-01T05:19:23;12.40;;;7.62;;
48124;SDS011;33908;47.436;18.918;2022-07-01T05:22:09;11.57;;;6.50;;
48124;SDS011;33908;47.436;18.918;2022-07-01T05:24:38;12.68;;;6.10;;
48124;SDS011;33908;47.436;18.918;2022-07-01T05:27:09;13.95;;;6.22;;
48124;SDS011;33908;47.436;18.918;2022-07-01T05:29:38;8.65;;;5.60;;
48124;SDS011;33908;47.436;18.918;2022-07-01T05:32:07;13.60;;;6.10;;
48124;SDS011;33908;47.436;18.918;2022-07-01T05:34:35;7.85;;;6.15;;
48124;SDS011;33908;47.436;18.918;2022-07-01T05:37:09;13.40;;;6.70;;
48124;SDS011;33908;47.436;18.918;2022-07-01T05:39:37;11.82;;;5.43;;
48124;SDS011;33908;47.436;18.918;2022-07-01T05:42:13;13.40;;;5.60;;
48124;SDS011;33908;47.436;18.918;2022-07-01T05:44:41;8.65;;;4.93;;
48124;SDS011;33908;47.436;18.918;2022-07-01T05:47:09;13.98;;;6.12;;
48124;SDS011;33908;47.436;18.918;2022-07-01T05:49:39;9.25;;;5.40;;
48124;SDS011;33908;47.436;18.918;2022-07-01T05:52:07;13.50;;;5.70;;
48124;SDS011;33908;47.436;18.918;2022-07-01T05:57:11;14.18;;;6.97;;
48124;SDS011;33908;47.436;18.918;2022-07-01T05:59:41;16.00;;;6.70;;
48124;SDS011;33908;47.436;18.918;2022-07-01T06:02:09;18.52;;;7.32;;
48124;SDS011;33908;47.436;18.918;2022-07-01T06:04:41;12.85;;;7.12;;
48124;SDS011;33908;47.436;18.918;2022-07-01T06:07:11;10.25;;;7.12;;
48124;SDS011;33908;47.436;18.918;2022-07-01T06:09:42;13.82;;;7.03;;
48124;SDS011;33908;47.436;18.918;2022-07-01T06:12:10;15.32;;;6.82;;
48124;SDS011;33908;47.436;18.918;2022-07-01T06:14:38;12.30;;;7.43;;
48124;SDS011;33908;47.436;18.918;2022-07-01T06:17:07;14.48;;;7.12;;
48124;SDS011;33908;47.436;18.918;2022-07-01T06:22:07;17.55;;;8.18;;
48124;SDS011;33908;47.436;18.918;2022-07-01T06:24:35;17.05;;;7.22;;
48124;SDS011;33908;47.436;18.918;2022-07-01T06:27:06;14.83;;;7.10;;
48124;SDS011;33908;47.436;18.918;2022-07-01T06:29:35;18.55;;;7.65;;
48124;SDS011;33908;47.436;18.918;2022-07-01T06:32:04;16.83;;;8.43;;
48124;SDS011;33908;47.436;18.918;2022-07-01T06:34:36;12.80;;;7.70;;
48124;SDS011;33908;47.436;18.918;2022-07-01T06:37:06;8.93;;;6.70;;
48124;SDS011;33908;47.436;18.918;2022-07-01T06:39:41;13.02;;;7.78;;
48124;SDS011;33908;47.436;18.918;2022-07-01T06:42:10;21.37;;;7.90;;
48124;SDS011;33908;47.436;18.918;2022-07-01T06:44:44;14.60;;;6.85;;
48124;SDS011;33908;47.436;18.918;2022-07-01T06:47:19;12.55;;;8.10;;
48124;SDS011;33908;47.436;18.918;2022-07-01T06:49:48;13.05;;;7.32;;
48124;SDS011;33908;47.436;18.918;2022-07-01T06:52:21;12.15;;;6.05;;
48124;SDS011;33908;47.436;18.918;2022-07-01T06:54:54;12.85;;;6.00;;
48124;SDS011;33908;47.436;18.918;2022-07-01T06:57:22;12.55;;;6.40;;
48124;SDS011;33908;47.436;18.918;2022-07-01T06:59:53;19.17;;;7.20;;
48124;SDS011;33908;47.436;18.918;2022-07-01T07:02:21;10.90;;;5.37;;
48124;SDS011;33908;47.436;18.918;2022-07-01T07:04:55;12.35;;;5.60;;
48124;SDS011;33908;47.436;18.918;2022-07-01T07:07:30;13.50;;;6.12;;
48124;SDS011;33908;47.436;18.918;2022-07-01T07:10:00;12.25;;;5.40;;
48124;SDS011;33908;47.436;18.918;2022-07-01T07:12:30;11.00;;;5.10;;
48124;SDS011;33908;47.436;18.918;2022-07-01T07:15:00;9.38;;;5.93;;
48124;SDS011;33908;47.436;18.918;2022-07-01T07:17:28;15.48;;;4.37;;
48124;SDS011;33908;47.436;18.918;2022-07-01T07:19:57;11.98;;;4.35;;
48124;SDS011;33908;47.436;18.918;2022-07-01T07:25:04;11.23;;;4.72;;
48124;SDS011;33908;47.436;18.918;2022-07-01T07:27:34;18.70;;;5.72;;
48124;SDS011;33908;47.436;18.918;2022-07-01T07:30:03;11.57;;;4.68;;
48124;SDS011;33908;47.436;18.918;2022-07-01T07:32:38;13.20;;;4.57;;
48124;SDS011;33908;47.436;18.918;2022-07-01T07:35:07;6.78;;;4.00;;
48124;SDS011;33908;47.436;18.918;2022-07-01T07:37:37;10.60;;;4.72;;
48124;SDS011;33908;47.436;18.918;2022-07-01T07:40:07;10.43;;;4.57;;
48124;SDS011;33908;47.436;18.918;2022-07-01T07:42:42;11.70;;;4.50;;
48124;SDS011;33908;47.436;18.918;2022-07-01T07:45:11;10.20;;;4.60;;
48124;SDS011;33908;47.436;18.918;2022-07-01T07:47:48;14.93;;;5.57;;
48124;SDS011;33908;47.436;18.918;2022-07-01T07:50:18;16.30;;;3.80;;
48124;SDS011;33908;47.436;18.918;2022-07-01T07:55:21;10.68;;;4.30;;
48124;SDS011;33908;47.436;18.918;2022-07-01T07:57:51;11.15;;;3.60;;
48124;SDS011;33908;47.436;18.918;2022-07-01T08:00:24;14.23;;;4.07;;
48124;SDS011;33908;47.436;18.918;2022-07-01T08:02:53;11.18;;;4.05;;
48124;SDS011;33908;47.436;18.918;2022-07-01T08:05:22;5.07;;;3.30;;
48124;SDS011;33908;47.436;18.918;2022-07-01T08:07:50;7.97;;;2.90;;
48124;SDS011;33908;47.436;18.918;2022-07-01T08:10:18;9.20;;;3.90;;
48124;SDS011;33908;47.436;18.918;2022-07-01T08:12:48;14.82;;;3.87;;
48124;SDS011;33908;47.436;18.918;2022-07-01T08:15:17;14.80;;;4.72;;
48124;SDS011;33908;47.436;18.918;2022-07-01T08:17:50;12.73;;;4.12;;
48124;SDS011;33908;47.436;18.918;2022-07-01T08:20:18;10.52;;;3.75;;
48124;SDS011;33908;47.436;18.918;2022-07-01T08:22:59;13.23;;;4.82;;
48124;SDS011;33908;47.436;18.918;2022-07-01T08:25:28;11.00;;;4.20;;
48124;SDS011;33908;47.436;18.918;2022-07-01T08:28:02;11.88;;;3.58;;
48124;SDS011;33908;47.436;18.918;2022-07-01T08:30:31;11.12;;;3.95;;
48124;SDS011;33908;47.436;18.918;2022-07-01T08:33:01;9.38;;;2.78;;
48124;SDS011;33908;47.436;18.918;2022-07-01T08:35:30;10.73;;;4.00;;
48124;SDS011;33908;47.436;18.918;2022-07-01T08:37:58;11.55;;;4.15;;
48124;SDS011;33908;47.436;18.918;2022-07-01T08:40:29;9.70;;;3.33;;
48124;SDS011;33908;47.436;18.918;2022-07-01T08:43:03;7.22;;;3.45;;
48124;SDS011;33908;47.436;18.918;2022-07-01T08:45:35;8.35;;;3.58;;
48124;SDS011;33908;47.436;18.918;2022-07-01T08:48:05;11.27;;;3.62;;
48124;SDS011;33908;47.436;18.918;2022-07-01T08:50:38;9.38;;;3.30;;
48124;SDS011;33908;47.436;18.918;2022-07-01T08:53:10;6.82;;;3.15;;
48124;SDS011;33908;47.436;18.918;2022-07-01T08:55:41;12.85;;;3.53;;
48124;SDS011;33908;47.436;18.918;2022-07-01T08:58:28;14.35;;;3.55;;
48124;SDS011;33908;47.436;18.918;2022-07-01T09:03:48;9.30;;;3.87;;
48124;SDS011;33908;47.436;18.918;2022-07-01T09:06:28;9.00;;;2.85;;
48124;SDS011;33908;47.436;18.918;2022-07-01T09:13:22;10.77;;;3.30;;
48124;SDS011;33908;47.436;18.918;2022-07-01T09:22:01;15.82;;;4.18;;
48124;SDS011;33908;47.436;18.918;2022-07-01T09:24:58;7.60;;;3.50;;
48124;SDS011;33908;47.436;18.918;2022-07-01T09:27:42;6.87;;;3.30;;
48124;SDS011;33908;47.436;18.918;2022-07-01T09:30:28;8.68;;;2.72;;
48124;SDS011;33908;47.436;18.918;2022-07-01T09:33:12;11.00;;;3.12;;
48124;SDS011;33908;47.436;18.918;2022-07-01T09:36:00;9.82;;;3.03;;
48124;SDS011;33908;47.436;18.918;2022-07-01T09:38:47;7.50;;;3.05;;
48124;SDS011;33908;47.436;18.918;2022-07-01T09:41:35;7.87;;;3.37;;
48124;SDS011;33908;47.436;18.918;2022-07-01T09:48:45;5.87;;;3.00;;
48124;SDS011;33908;47.436;18.918;2022-07-01T09:51:31;9.00;;;3.47;;
48124;SDS011;33908;47.436;18.918;2022-07-01T09:54:16;8.45;;;2.85;;
48124;SDS011;33908;47.436;18.918;2022-07-01T09:56:47;10.52;;;3.22;;
48124;SDS011;33908;47.436;18.918;2022-07-01T09:59:19;4.90;;;2.80;;
48124;SDS011;33908;47.436;18.918;2022-07-01T10:01:47;7.35;;;3.30;;
48124;SDS011;33908;47.436;18.918;2022-07-01T10:04:16;15.20;;;4.15;;
48124;SDS011;33908;47.436;18.918;2022-07-01T10:13:27;7.45;;;2.95;;
48124;SDS011;33908;47.436;18.918;2022-07-01T10:16:00;13.70;;;3.15;;
48124;SDS011;33908;47.436;18.918;2022-07-01T10:18:34;11.02;;;2.80;;
48124;SDS011;33908;47.436;18.918;2022-07-01T10:21:10;8.25;;;3.42;;
48124;SDS011;33908;47.436;18.918;2022-07-01T10:24:13;7.15;;;2.70;;
48124;SDS011;33908;47.436;18.918;2022-07-01T10:26:46;12.13;;;3.03;;
48124;SDS011;33908;47.436;18.918;2022-07-01T10:34:33;9.40;;;3.80;;
48124;SDS011;33908;47.436;18.918;2022-07-01T10:37:23;8.48;;;2.78;;
48124;SDS011;33908;47.436;18.918;2022-07-01T10:40:02;11.85;;;3.85;;
48124;SDS011;33908;47.436;18.918;2022-07-01T10:42:35;9.23;;;3.58;;
48124;SDS011;33908;47.436;18.918;2022-07-01T10:45:47;7.10;;;3.05;;
48124;SDS011;33908;47.436;18.918;2022-07-01T10:48:17;10.88;;;3.45;;
48124;SDS011;33908;47.436;18.918;2022-07-01T10:50:54;8.77;;;3.10;;
48124;SDS011;33908;47.436;18.918;2022-07-01T10:53:24;8.57;;;2.70;;
48124;SDS011;33908;47.436;18.918;2022-07-01T10:55:55;9.20;;;3.08;;
48124;SDS011;33908;47.436;18.918;2022-07-01T10:58:37;7.43;;;2.80;;
48124;SDS011;33908;47.436;18.918;2022-07-01T11:03:44;10.40;;;2.97;;
48124;SDS011;33908;47.436;18.918;2022-07-01T11:06:16;6.85;;;3.05;;
48124;SDS011;33908;47.436;18.918;2022-07-01T11:11:35;11.55;;;3.17;;
48124;SDS011;33908;47.436;18.918;2022-07-01T11:14:04;11.75;;;2.97;;
48124;SDS011;33908;47.436;18.918;2022-07-01T11:16:36;9.25;;;3.53;;
48124;SDS011;33908;47.436;18.918;2022-07-01T11:19:05;9.15;;;3.50;;
48124;SDS011;33908;47.436;18.918;2022-07-01T11:24:12;8.75;;;3.40;;
48124;SDS011;33908;47.436;18.918;2022-07-01T11:26:47;14.90;;;3.00;;
48124;SDS011;33908;47.436;18.918;2022-07-01T11:29:27;9.07;;;2.95;;
48124;SDS011;33908;47.436;18.918;2022-07-01T11:32:01;6.30;;;2.85;;
48124;SDS011;33908;47.436;18.918;2022-07-01T11:34:29;7.53;;;2.90;;
48124;SDS011;33908;47.436;18.918;2022-07-01T11:37:08;9.32;;;3.12;;
48124;SDS011;33908;47.436;18.918;2022-07-01T11:40:11;8.55;;;2.78;;
48124;SDS011;33908;47.436;18.918;2022-07-01T11:42:47;16.30;;;4.30;;
48124;SDS011;33908;47.436;18.918;2022-07-01T11:47:57;4.87;;;2.90;;
48124;SDS011;33908;47.436;18.918;2022-07-01T11:50:26;7.32;;;3.42;;
48124;SDS011;33908;47.436;18.918;2022-07-01T11:52:58;10.55;;;3.50;;
48124;SDS011;33908;47.436;18.918;2022-07-01T11:55:33;10.50;;;3.37;;
48124;SDS011;33908;47.436;18.918;2022-07-01T11:58:07;10.93;;;2.92;;
48124;SDS011;33908;47.436;18.918;2022-07-01T12:00:37;9.83;;;3.00;;
48124;SDS011;33908;47.436;18.918;2022-07-01T12:03:10;11.68;;;3.60;;
48124;SDS011;33908;47.436;18.918;2022-07-01T12:05:44;11.07;;;4.07;;
48124;SDS011;33908;47.436;18.918;2022-07-01T12:08:25;6.55;;;3.67;;
48124;SDS011;33908;47.436;18.918;2022-07-01T12:10:58;9.65;;;3.30;;
48124;SDS011;33908;47.436;18.918;2022-07-01T12:13:34;5.47;;;2.78;;
48124;SDS011;33908;47.436;18.918;2022-07-01T12:16:06;9.38;;;3.03;;
48124;SDS011;33908;47.436;18.918;2022-07-01T12:18:50;13.60;;;3.65;;
48124;SDS011;33908;47.436;18.918;2022-07-01T12:21:25;9.80;;;3.42;;
48124;SDS011;33908;47.436;18.918;2022-07-01T12:34:54;9.00;;;3.00;;
48124;SDS011;33908;47.436;18.918;2022-07-01T12:40:23;6.30;;;3.03;;
48124;SDS011;33908;47.436;18.918;2022-07-01T12:42:57;13.43;;;4.43;;
48124;SDS011;33908;47.436;18.918;2022-07-01T12:45:33;7.62;;;2.87;;
48124;SDS011;33908;47.436;18.918;2022-07-01T12:48:08;7.18;;;2.75;;
48124;SDS011;33908;47.436;18.918;2022-07-01T12:50:36;8.93;;;2.90;;
48124;SDS011;33908;47.436;18.918;2022-07-01T13:02:34;11.57;;;2.95;;
48124;SDS011;33908;47.436;18.918;2022-07-01T13:05:39;11.00;;;3.42;;
48124;SDS011;33908;47.436;18.918;2022-07-01T13:08:26;9.02;;;3.62;;
48124;SDS011;33908;47.436;18.918;2022-07-01T13:10:56;7.55;;;2.78;;
48124;SDS011;33908;47.436;18.918;2022-07-01T13:13:26;10.05;;;3.15;;
48124;SDS011;33908;47.436;18.918;2022-07-01T13:15:56;13.82;;;4.15;;
48124;SDS011;33908;47.436;18.918;2022-07-01T13:18:30;8.23;;;2.75;;
48124;SDS011;33908;47.436;18.918;2022-07-01T13:20:59;8.70;;;2.92;;
48124;SDS011;33908;47.436;18.918;2022-07-01T13:28:49;7.78;;;2.80;;
48124;SDS011;33908;47.436;18.918;2022-07-01T13:31:17;7.70;;;3.08;;
48124;SDS011;33908;47.436;18.918;2022-07-01T13:33:46;8.70;;;2.42;;
48124;SDS011;33908;47.436;18.918;2022-07-01T13:36:27;6.75;;;2.75;;
48124;SDS011;33908;47.436;18.918;2022-07-01T13:38:57;12.35;;;2.60;;
48124;SDS011;33908;47.436;18.918;2022-07-01T13:41:31;12.68;;;2.70;;
48124;SDS011;33908;47.436;18.918;2022-07-01T13:44:01;8.20;;;3.30;;
48124;SDS011;33908;47.436;18.918;2022-07-01T13:46:33;7.30;;;3.45;;
48124;SDS011;33908;47.436;18.918;2022-07-01T13:49:16;6.22;;;3.17;;
48124;SDS011;33908;47.436;18.918;2022-07-01T13:51:52;8.60;;;3.70;;
48124;SDS011;33908;47.436;18.918;2022-07-01T13:54:20;9.02;;;2.83;;
48124;SDS011;33908;47.436;18.918;2022-07-01T13:56:51;5.90;;;3.05;;
48124;SDS011;33908;47.436;18.918;2022-07-01T14:01:57;10.63;;;3.47;;
48124;SDS011;33908;47.436;18.918;2022-07-01T14:04:37;12.02;;;3.33;;
48124;SDS011;33908;47.436;18.918;2022-07-01T14:07:06;14.90;;;3.67;;
48124;SDS011;33908;47.436;18.918;2022-07-01T14:09:35;12.05;;;3.28;;
48124;SDS011;33908;47.436;18.918;2022-07-01T14:14:49;14.05;;;3.85;;
48124;SDS011;33908;47.436;18.918;2022-07-01T14:17:25;8.98;;;3.20;;
48124;SDS011;33908;47.436;18.918;2022-07-01T14:19:54;6.25;;;3.28;;
48124;SDS011;33908;47.436;18.918;2022-07-01T14:22:24;4.07;;;3.17;;
48124;SDS011;33908;47.436;18.918;2022-07-01T14:24:54;9.73;;;3.50;;
48124;SDS011;33908;47.436;18.918;2022-07-01T14:27:23;8.95;;;3.47;;
48124;SDS011;33908;47.436;18.918;2022-07-01T14:29:53;10.40;;;2.97;;
48124;SDS011;33908;47.436;18.918;2022-07-01T14:32:28;9.40;;;3.35;;
48124;SDS011;33908;47.436;18.918;2022-07-01T14:35:00;12.37;;;3.22;;
48124;SDS011;33908;47.436;18.918;2022-07-01T14:37:30;10.55;;;3.20;;
48124;SDS011;33908;47.436;18.918;2022-07-01T14:40:04;4.65;;;3.00;;
48124;SDS011;33908;47.436;18.918;2022-07-01T14:42:36;9.38;;;3.22;;
48124;SDS011;33908;47.436;18.918;2022-07-01T14:45:07;7.50;;;4.03;;
48124;SDS011;33908;47.436;18.918;2022-07-01T14:47:40;7.43;;;3.30;;
48124;SDS011;33908;47.436;18.918;2022-07-01T14:50:10;7.65;;;3.45;;
48124;SDS011;33908;47.436;18.918;2022-07-01T14:52:40;10.20;;;4.15;;
48124;SDS011;33908;47.436;18.918;2022-07-01T14:55:14;12.02;;;3.75;;
48124;SDS011;33908;47.436;18.918;2022-07-01T14:57:46;11.73;;;3.97;;
48124;SDS011;33908;47.436;18.918;2022-07-01T15:00:17;12.00;;;3.35;;
48124;SDS011;33908;47.436;18.918;2022-07-01T15:02:47;13.82;;;3.70;;
48124;SDS011;33908;47.436;18.918;2022-07-01T15:05:18;8.63;;;4.03;;
48124;SDS011;33908;47.436;18.918;2022-07-01T15:07:48;9.75;;;3.97;;
48124;SDS011;33908;47.436;18.918;2022-07-01T15:10:26;9.48;;;3.92;;
48124;SDS011;33908;47.436;18.918;2022-07-01T15:12:56;9.52;;;3.90;;
48124;SDS011;33908;47.436;18.918;2022-07-01T15:15:30;8.02;;;3.80;;
48124;SDS011;33908;47.436;18.918;2022-07-01T15:18:00;23.50;;;4.40;;
48124;SDS011;33908;47.436;18.918;2022-07-01T15:20:31;13.33;;;3.93;;
48124;SDS011;33908;47.436;18.918;2022-07-01T15:23:00;9.68;;;4.32;;
48124;SDS011;33908;47.436;18.918;2022-07-01T15:25:41;9.35;;;3.97;;
48124;SDS011;33908;47.436;18.918;2022-07-01T15:28:11;11.63;;;4.37;;
48124;SDS011;33908;47.436;18.918;2022-07-01T15:30:40;9.48;;;3.85;;
48124;SDS011;33908;47.436;18.918;2022-07-01T15:35:50;9.52;;;3.90;;
48124;SDS011;33908;47.436;18.918;2022-07-01T15:38:21;10.57;;;4.03;;
48124;SDS011;33908;47.436;18.918;2022-07-01T15:40:52;10.75;;;4.72;;
48124;SDS011;33908;47.436;18.918;2022-07-01T15:43:25;7.15;;;3.90;;
48124;SDS011;33908;47.436;18.918;2022-07-01T15:46:05;10.32;;;4.45;;
48124;SDS011;33908;47.436;18.918;2022-07-01T15:48:39;14.15;;;5.00;;
48124;SDS011;33908;47.436;18.918;2022-07-01T15:51:11;11.90;;;4.82;;
48124;SDS011;33908;47.436;18.918;2022-07-01T15:53:45;12.35;;;4.05;;
48124;SDS011;33908;47.436;18.918;2022-07-01T15:58:52;9.10;;;4.15;;
48124;SDS011;33908;47.436;18.918;2022-07-01T16:01:22;9.82;;;4.57;;
48124;SDS011;33908;47.436;18.918;2022-07-01T16:03:57;7.60;;;4.40;;
48124;SDS011;33908;47.436;18.918;2022-07-01T16:06:30;10.32;;;4.28;;
48124;SDS011;33908;47.436;18.918;2022-07-01T16:09:00;9.45;;;4.65;;
48124;SDS011;33908;47.436;18.918;2022-07-01T16:11:35;13.38;;;4.47;;
48124;SDS011;33908;47.436;18.918;2022-07-01T16:14:09;12.02;;;4.25;;
48124;SDS011;33908;47.436;18.918;2022-07-01T16:16:41;8.88;;;4.68;;
48124;SDS011;33908;47.436;18.918;2022-07-01T16:19:11;5.27;;;4.27;;
48124;SDS011;33908;47.436;18.918;2022-07-01T16:21:41;11.95;;;5.03;;
48124;SDS011;33908;47.436;18.918;2022-07-01T16:24:13;13.70;;;5.00;;
48124;SDS011;33908;47.436;18.918;2022-07-01T16:26:48;12.27;;;5.57;;